createdAt,value
2022-10-09T00:01:08.056Z,67.53
2022-10-09T00:03:35.987Z,67.98
2022-10-09T00:06:03.953Z,67.86
2022-10-09T00:08:30.585Z,67.56
2022-10-09T00:10:57.528Z,67.53
2022-10-09T00:13:24.201Z,67.40
2022-10-09T00:15:50.913Z,67.74
2022-10-09T00:18:18.811Z,67.86
2022-10-09T00:20:46.817Z,67.51
2022-10-09T00:23:16.588Z,67.71
2022-10-09T00:25:57.003Z,67.62
2022-10-09T00:28:26.648Z,67.49
2022-10-09T00:30:54.002Z,67.63
2022-10-09T00:33:20.949Z,67.70
2022-10-09T00:35:47.830Z,67.81
2022-10-09T00:38:14.885Z,67.56
2022-10-09T00:40:41.806Z,67.93
2022-10-09T00:43:37.601Z,67.55
2022-10-09T00:46:04.408Z,67.56
2022-10-09T00:48:31.699Z,67.28
2022-10-09T00:51:01.034Z,67.24
2022-10-09T00:53:30.230Z,67.66
2022-10-09T00:55:58.129Z,68.00
2022-10-09T00:58:25.276Z,68.62
2022-10-09T01:00:52.467Z,68.29
2022-10-09T01:03:19.156Z,68.97
2022-10-09T01:05:58.021Z,69.07
2022-10-09T01:08:31.072Z,69.18
2022-10-09T01:11:26.671Z,69.29
2022-10-09T01:14:01.336Z,69.63
2022-10-09T01:16:44.834Z,69.30
2022-10-09T01:19:27.658Z,69.41
2022-10-09T01:22:23.420Z,69.34
2022-10-09T01:25:06.292Z,69.80
2022-10-09T01:27:34.558Z,69.73
2022-10-09T01:30:07.669Z,69.79
2022-10-09T01:32:38.149Z,69.63
2022-10-09T01:35:06.540Z,69.25
2022-10-09T01:37:35.484Z,68.12
2022-10-09T01:40:05.012Z,68.23
2022-10-09T01:42:32.381Z,68.28
2022-10-09T01:44:59.021Z,68.58
2022-10-09T01:47:26.204Z,68.83
2022-10-09T01:49:55.795Z,69.62
2022-10-09T01:52:33.588Z,69.54
2022-10-09T01:55:13.326Z,69.54
2022-10-09T01:57:50.643Z,69.35
2022-10-09T02:00:18.809Z,69.49
2022-10-09T02:02:47.224Z,69.84
2022-10-09T02:05:20.435Z,70.31
2022-10-09T02:07:47.380Z,70.07
2022-10-09T02:10:16.478Z,69.80
2022-10-09T02:12:49.891Z,69.85
2022-10-09T02:15:16.759Z,69.82
2022-10-09T02:17:47.677Z,69.77
2022-10-09T02:20:22.632Z,69.01
2022-10-09T02:22:49.585Z,68.43
2022-10-09T02:25:18.428Z,68.68
2022-10-09T02:27:46.206Z,68.06
2022-10-09T02:30:15.246Z,68.25
2022-10-09T02:32:41.926Z,68.73
2022-10-09T02:35:08.918Z,68.70
2022-10-09T02:37:35.400Z,68.76
2022-10-09T02:40:03.233Z,69.08
2022-10-09T02:42:31.476Z,69.32
2022-10-09T02:44:58.115Z,69.29
2022-10-09T02:47:24.630Z,69.01
2022-10-09T02:49:51.183Z,68.75
2022-10-09T02:52:17.718Z,68.10
2022-10-09T02:54:44.207Z,68.07
2022-10-09T02:57:14.250Z,67.81
2022-10-09T02:59:40.816Z,67.59
2022-10-09T03:02:07.428Z,67.94
2022-10-09T03:04:34.093Z,68.29
2022-10-09T03:07:00.595Z,68.22
2022-10-09T03:09:31.403Z,68.11
2022-10-09T03:12:00.012Z,67.55
2022-10-09T03:14:27.195Z,67.43
2022-10-09T03:16:53.679Z,66.88
2022-10-09T03:19:20.242Z,67.18
2022-10-09T03:21:46.773Z,66.63
2022-10-09T03:24:13.390Z,67.30
2022-10-09T03:26:39.996Z,67.41
2022-10-09T03:29:06.593Z,67.08
2022-10-09T03:31:51.380Z,67.79
2022-10-09T03:34:19.321Z,67.93
2022-10-09T03:36:46.090Z,67.42
2022-10-09T03:39:12.673Z,66.91
2022-10-09T03:41:39.259Z,66.92
2022-10-09T03:44:05.917Z,66.67
2022-10-09T03:46:32.567Z,66.88
2022-10-09T03:48:59.129Z,66.79
2022-10-09T03:51:26.946Z,66.77
2022-10-09T03:53:53.441Z,67.27
2022-10-09T03:56:19.996Z,67.77
2022-10-09T03:58:46.561Z,66.52
2022-10-09T04:01:13.091Z,66.84
2022-10-09T04:03:39.659Z,66.60
2022-10-09T04:06:06.518Z,67.08
2022-10-09T04:08:33.062Z,67.14
2022-10-09T04:11:01.339Z,67.88
2022-10-09T04:13:27.940Z,67.91
2022-10-09T04:15:55.605Z,68.12
2022-10-09T04:18:22.874Z,68.33
2022-10-09T04:20:51.249Z,68.01
2022-10-09T04:23:22.822Z,67.92
2022-10-09T04:25:53.932Z,68.16
2022-10-09T04:28:20.775Z,68.41
2022-10-09T04:30:47.274Z,68.63
2022-10-09T04:33:13.812Z,68.60
2022-10-09T04:35:50.897Z,68.60
2022-10-09T04:38:18.178Z,68.41
2022-10-09T04:40:44.736Z,68.73
2022-10-09T04:43:11.340Z,68.90
2022-10-09T04:45:41.593Z,69.42
2022-10-09T04:48:08.128Z,68.33
2022-10-09T04:50:34.632Z,67.79
2022-10-09T04:53:01.367Z,67.47
2022-10-09T04:55:27.894Z,67.43
2022-10-09T04:57:54.413Z,67.45
2022-10-09T05:00:21.021Z,67.55
2022-10-09T05:02:47.809Z,67.95
2022-10-09T05:05:14.765Z,68.19
2022-10-09T05:07:41.297Z,68.34
2022-10-09T05:10:08.486Z,68.43
2022-10-09T05:12:35.053Z,68.95
2022-10-09T05:15:02.141Z,68.58
2022-10-09T05:17:28.780Z,69.23
2022-10-09T05:19:55.405Z,68.82
2022-10-09T05:22:22.171Z,68.83
2022-10-09T05:24:48.721Z,68.96
2022-10-09T05:27:15.215Z,68.79
2022-10-09T05:29:41.892Z,68.61
2022-10-09T05:32:08.512Z,68.86
2022-10-09T05:34:35.667Z,68.41
2022-10-09T05:37:02.259Z,68.26
2022-10-09T05:39:28.785Z,67.94
2022-10-09T05:41:55.303Z,67.77
2022-10-09T05:44:22.007Z,67.98
2022-10-09T05:46:48.538Z,68.12
2022-10-09T05:49:15.206Z,67.69
2022-10-09T05:51:42.972Z,67.54
2022-10-09T05:54:16.552Z,67.45
2022-10-09T05:56:44.485Z,67.14
2022-10-09T05:59:19.502Z,67.14
2022-10-09T06:01:49.834Z,67.10
2022-10-09T06:04:20.051Z,67.44
2022-10-09T06:06:48.632Z,67.09
2022-10-09T06:09:23.085Z,66.94
2022-10-09T06:11:50.977Z,67.01
2022-10-09T06:14:18.246Z,67.59
2022-10-09T06:16:45.890Z,67.38
2022-10-09T06:19:15.210Z,67.57
2022-10-09T06:21:43.245Z,67.05
2022-10-09T06:24:23.263Z,67.41
2022-10-09T06:26:53.730Z,67.40
2022-10-09T06:29:20.349Z,67.40
2022-10-09T06:31:46.888Z,67.35
2022-10-09T06:34:13.483Z,67.35
2022-10-09T06:36:40.070Z,67.86
2022-10-09T06:39:08.193Z,68.18
2022-10-09T06:41:35.315Z,68.26
2022-10-09T06:44:07.801Z,69.67
2022-10-09T06:46:37.421Z,69.80
2022-10-09T06:49:05.455Z,70.60
2022-10-09T06:51:32.873Z,71.03
2022-10-09T06:54:02.139Z,71.48
2022-10-09T06:56:32.146Z,71.42
2022-10-09T06:59:03.806Z,71.39
2022-10-09T07:01:32.246Z,71.74
2022-10-09T07:04:04.454Z,71.37
2022-10-09T07:06:32.595Z,71.85
2022-10-09T07:09:01.524Z,71.47
2022-10-09T07:11:34.233Z,71.38
2022-10-09T07:14:03.346Z,72.14
2022-10-09T07:16:38.381Z,72.58
2022-10-09T07:19:11.106Z,73.37
2022-10-09T07:21:41.417Z,73.14
2022-10-09T07:24:08.696Z,72.67
2022-10-09T07:26:38.461Z,73.00
2022-10-09T07:29:07.938Z,73.63
2022-10-09T07:31:34.543Z,73.72
2022-10-09T07:34:01.361Z,73.44
2022-10-09T07:36:28.103Z,73.30
2022-10-09T07:38:57.085Z,73.09
2022-10-09T07:41:25.665Z,73.03
2022-10-09T07:43:52.545Z,72.71
2022-10-09T07:46:20.891Z,72.59
2022-10-09T07:48:50.497Z,72.76
2022-10-09T07:51:27.712Z,73.54
2022-10-09T07:53:54.961Z,73.72
2022-10-09T07:56:29.281Z,73.46
2022-10-09T07:58:58.217Z,73.30
2022-10-09T08:01:27.937Z,73.14
2022-10-09T08:03:55.006Z,73.41
2022-10-09T08:06:21.906Z,73.16
2022-10-09T08:08:53.626Z,73.25
2022-10-09T08:11:21.288Z,73.12
2022-10-09T08:13:49.821Z,72.88
2022-10-09T08:16:17.706Z,73.35
2022-10-09T08:18:44.273Z,73.51
2022-10-09T08:21:13.396Z,73.79
2022-10-09T08:23:39.936Z,72.91
2022-10-09T08:26:16.189Z,73.90
2022-10-09T08:28:43.524Z,73.90
2022-10-09T08:31:15.588Z,74.09
2022-10-09T08:33:42.768Z,73.61
2022-10-09T08:36:11.765Z,73.25
2022-10-09T08:38:47.140Z,73.48
2022-10-09T08:41:23.556Z,73.43
2022-10-09T08:43:56.245Z,72.82
2022-10-09T08:46:29.343Z,71.83
2022-10-09T08:48:56.406Z,72.86
2022-10-09T08:51:28.742Z,73.02
2022-10-09T08:54:04.498Z,73.79
2022-10-09T08:56:33.391Z,73.48
2022-10-09T08:59:01.920Z,74.37
2022-10-09T09:02:00.939Z,74.01
2022-10-09T09:04:59.780Z,74.61
2022-10-09T09:07:42.585Z,74.75
2022-10-09T09:10:25.426Z,74.51
2022-10-09T09:13:00.634Z,74.30
2022-10-09T09:16:02.663Z,74.27
2022-10-09T09:18:42.558Z,74.35
2022-10-09T09:21:32.483Z,74.37
2022-10-09T09:24:02.785Z,73.62
2022-10-09T09:26:29.929Z,73.42
2022-10-09T09:29:01.941Z,72.93
2022-10-09T09:31:36.140Z,73.87
2022-10-09T09:34:11.235Z,74.11
2022-10-09T09:36:55.493Z,73.70
2022-10-09T09:40:23.882Z,73.75
2022-10-09T09:42:18.152Z,74.03
2022-10-09T09:44:58.197Z,74.21
2022-10-09T09:47:38.611Z,74.61
2022-10-09T09:50:18.510Z,74.37
2022-10-09T09:52:55.762Z,73.91
2022-10-09T09:55:29.103Z,73.49
2022-10-09T09:58:07.753Z,72.43
2022-10-09T10:00:35.787Z,72.74
2022-10-09T10:03:21.430Z,72.34
2022-10-09T10:05:48.164Z,71.87
2022-10-09T10:08:15.650Z,70.95
2022-10-09T10:10:47.836Z,70.32
2022-10-09T10:13:38.103Z,69.95
2022-10-09T10:16:07.397Z,70.26
2022-10-09T10:18:41.081Z,69.23
2022-10-09T10:21:14.621Z,68.57
2022-10-09T10:23:45.633Z,68.39
2022-10-09T10:26:44.183Z,66.96
2022-10-09T10:29:32.066Z,66.93
2022-10-09T10:32:10.891Z,66.79
2022-10-09T10:34:59.639Z,65.96
2022-10-09T10:37:42.890Z,64.69
2022-10-09T10:40:33.381Z,64.98
2022-10-09T10:43:12.129Z,65.51
2022-10-09T10:46:05.753Z,65.43
2022-10-09T10:48:37.893Z,64.17
2022-10-09T10:51:51.449Z,63.50
2022-10-09T10:54:36.059Z,62.48
2022-10-09T10:57:07.571Z,61.19
2022-10-09T10:59:43.189Z,59.38
2022-10-09T11:02:09.684Z,60.44
2022-10-09T11:04:58.014Z,59.88
2022-10-09T11:07:50.992Z,59.84
2022-10-09T11:11:02.039Z,60.09
2022-10-09T11:13:37.038Z,60.18
2022-10-09T11:16:14.547Z,60.61
2022-10-09T11:18:56.269Z,60.30
2022-10-09T11:21:43.023Z,60.79
2022-10-09T11:24:15.600Z,60.72
2022-10-09T11:26:57.569Z,60.75
2022-10-09T11:29:31.019Z,60.88
2022-10-09T11:32:05.609Z,60.84
2022-10-09T11:34:43.024Z,60.48
2022-10-09T11:37:18.080Z,60.56
2022-10-09T11:39:45.233Z,60.27
2022-10-09T11:42:14.157Z,61.04
2022-10-09T11:44:55.778Z,61.22
2022-10-09T11:47:27.941Z,60.99
2022-10-09T11:50:16.975Z,60.65
2022-10-09T11:53:04.283Z,60.07
2022-10-09T11:55:33.323Z,60.07
2022-10-09T11:58:22.952Z,59.09
2022-10-09T12:00:53.932Z,59.45
2022-10-09T12:03:34.114Z,59.02
2022-10-09T12:06:08.024Z,58.52
2022-10-09T12:08:35.906Z,58.42
2022-10-09T12:11:18.496Z,58.04
2022-10-09T12:13:47.522Z,58.00
2022-10-09T12:16:34.023Z,58.04
2022-10-09T12:19:04.460Z,58.29
2022-10-09T12:21:38.475Z,58.46
2022-10-09T12:24:07.765Z,58.74
2022-10-09T12:26:35.849Z,58.76
2022-10-09T12:29:05.026Z,58.76
2022-10-09T12:31:38.731Z,58.24
2022-10-09T12:34:17.819Z,57.97
2022-10-09T12:36:44.386Z,58.11
2022-10-09T12:39:18.365Z,57.75
2022-10-09T12:41:47.795Z,57.54
2022-10-09T12:44:35.837Z,57.37
2022-10-09T12:47:06.065Z,57.42
2022-10-09T12:49:32.959Z,56.91
2022-10-09T12:52:00.810Z,56.47
2022-10-09T12:54:30.492Z,56.47
2022-10-09T12:56:59.729Z,56.84
2022-10-09T12:59:28.812Z,57.46
2022-10-09T13:02:00.504Z,57.73
2022-10-09T13:04:31.242Z,57.75
2022-10-09T13:07:07.737Z,57.13
2022-10-09T13:09:39.707Z,57.49
2022-10-09T13:12:10.013Z,57.04
2022-10-09T13:14:46.050Z,56.95
2022-10-09T13:17:34.632Z,56.45
2022-10-09T13:20:23.908Z,56.75
2022-10-09T13:23:05.827Z,56.28
2022-10-09T13:25:39.281Z,55.40
2022-10-09T13:28:06.381Z,55.26
2022-10-09T13:30:33.598Z,55.12
2022-10-09T13:33:00.367Z,54.33
2022-10-09T13:35:26.999Z,54.66
2022-10-09T13:37:53.753Z,54.84
2022-10-09T13:40:23.791Z,54.61
2022-10-09T13:42:56.951Z,54.55
2022-10-09T13:45:23.845Z,54.80
2022-10-09T13:47:50.933Z,54.50
2022-10-09T13:50:18.495Z,54.16
2022-10-09T13:52:45.349Z,54.50
2022-10-09T13:55:12.416Z,55.21
2022-10-09T13:57:38.944Z,55.09
2022-10-09T14:00:06.760Z,54.87
2022-10-09T14:02:33.382Z,55.32
2022-10-09T14:05:00.002Z,55.41
2022-10-09T14:07:27.193Z,54.86
2022-10-09T14:09:58.616Z,54.68
2022-10-09T14:12:25.121Z,54.32
2022-10-09T14:14:54.094Z,54.99
2022-10-09T14:17:20.988Z,54.69
2022-10-09T14:19:49.748Z,54.41
2022-10-09T14:22:20.270Z,54.71
2022-10-09T14:24:47.940Z,54.21
2022-10-09T14:27:14.739Z,54.29
2022-10-09T14:29:41.459Z,53.70
2022-10-09T14:32:10.718Z,53.66
2022-10-09T14:34:37.354Z,53.73
2022-10-09T14:37:18.968Z,53.92
2022-10-09T14:39:55.545Z,53.97
2022-10-09T14:42:23.311Z,53.69
2022-10-09T14:44:50.646Z,53.56
2022-10-09T14:47:18.705Z,53.86
2022-10-09T14:49:46.100Z,54.03
2022-10-09T14:52:27.131Z,54.13
2022-10-09T14:54:53.773Z,54.53
2022-10-09T14:57:20.965Z,54.76
2022-10-09T14:59:48.178Z,55.10
2022-10-09T15:02:19.856Z,55.39
2022-10-09T15:04:58.098Z,55.17
2022-10-09T15:07:28.167Z,55.03
2022-10-09T15:09:56.305Z,55.19
2022-10-09T15:12:23.237Z,55.48
2022-10-09T15:14:51.094Z,55.63
2022-10-09T15:17:18.316Z,55.77
2022-10-09T15:19:45.323Z,55.91
2022-10-09T15:22:12.488Z,55.91
2022-10-09T15:24:39.572Z,56.10
2022-10-09T15:27:06.460Z,56.19
2022-10-09T15:29:35.428Z,56.15
2022-10-09T15:32:15.743Z,56.39
2022-10-09T15:34:42.571Z,56.48
2022-10-09T15:37:09.608Z,56.46
2022-10-09T15:39:36.594Z,56.68
2022-10-09T15:42:03.838Z,56.62
2022-10-09T15:44:30.898Z,56.42
2022-10-09T15:46:57.666Z,56.20
2022-10-09T15:49:24.486Z,56.21
2022-10-09T15:51:51.501Z,56.09
2022-10-09T15:54:18.665Z,56.56
2022-10-09T15:56:45.583Z,56.23
2022-10-09T15:59:14.096Z,56.23
2022-10-09T16:01:40.975Z,55.91
2022-10-09T16:04:07.753Z,56.34
2022-10-09T16:06:34.993Z,56.27
2022-10-09T16:09:04.030Z,56.39
2022-10-09T16:11:31.413Z,56.64
2022-10-09T16:13:59.258Z,57.17
2022-10-09T16:16:27.860Z,57.31
2022-10-09T16:18:56.000Z,57.48
2022-10-09T16:21:25.693Z,57.65
2022-10-09T16:23:58.099Z,57.39
2022-10-09T16:26:26.937Z,56.73
2022-10-09T16:28:53.829Z,57.04
2022-10-09T16:31:30.269Z,56.86
2022-10-09T16:33:57.656Z,56.66
2022-10-09T16:36:24.177Z,56.12
2022-10-09T16:38:50.966Z,55.81
2022-10-09T16:41:20.321Z,55.97
2022-10-09T16:43:49.109Z,55.96
2022-10-09T16:49:02.761Z,56.75
2022-10-09T16:51:34.731Z,56.56
2022-10-09T16:54:03.964Z,56.68
2022-10-09T16:56:33.666Z,56.39
2022-10-09T16:59:03.341Z,56.45
2022-10-09T17:01:30.244Z,56.60
2022-10-09T17:03:57.755Z,57.18
2022-10-09T17:06:25.481Z,57.07
2022-10-09T17:08:53.542Z,57.15
2022-10-09T17:11:25.589Z,57.27
2022-10-09T17:13:58.651Z,57.51
2022-10-09T17:16:28.692Z,57.78
2022-10-09T17:18:55.607Z,57.87
2022-10-09T17:21:27.908Z,57.74
2022-10-09T17:24:00.005Z,57.92
2022-10-09T17:26:28.375Z,58.14
2022-10-09T17:28:57.344Z,58.08
2022-10-09T17:31:25.327Z,58.65
2022-10-09T17:33:56.487Z,58.82
2022-10-09T17:36:25.950Z,59.37
2022-10-09T17:38:55.833Z,59.80
2022-10-09T17:41:24.341Z,59.68
2022-10-09T17:43:52.488Z,59.69
2022-10-09T17:46:20.209Z,59.72
2022-10-09T17:48:53.215Z,59.58
2022-10-09T17:51:23.941Z,59.96
2022-10-09T17:53:51.073Z,59.99
2022-10-09T17:56:18.779Z,59.71
2022-10-09T17:58:47.700Z,60.08
2022-10-09T18:01:15.677Z,60.12
2022-10-09T18:03:43.505Z,60.18
2022-10-09T18:06:14.312Z,60.87
2022-10-09T18:08:41.321Z,61.01
2022-10-09T18:11:11.688Z,61.86
2022-10-09T18:13:39.563Z,62.00
2022-10-09T18:16:11.001Z,62.34
2022-10-09T18:18:38.036Z,62.32
2022-10-09T18:21:07.349Z,62.56
2022-10-09T18:23:34.735Z,62.22
2022-10-09T18:26:07.468Z,62.20
2022-10-09T18:28:34.522Z,61.88
2022-10-09T18:31:05.484Z,61.85
2022-10-09T18:33:36.232Z,61.76
2022-10-09T18:36:05.948Z,62.63
2022-10-09T18:38:34.001Z,62.61
2022-10-09T18:41:02.756Z,62.51
2022-10-09T18:43:29.761Z,62.80
2022-10-09T18:45:58.058Z,63.15
2022-10-09T18:48:29.155Z,63.29
2022-10-09T18:50:56.559Z,63.46
2022-10-09T18:53:23.547Z,63.34
2022-10-09T18:55:50.445Z,63.21
2022-10-09T18:58:21.857Z,63.48
2022-10-09T19:00:50.612Z,63.52
2022-10-09T19:03:17.162Z,63.76
2022-10-09T19:05:45.097Z,63.96
2022-10-09T19:08:12.461Z,63.84
2022-10-09T19:10:39.307Z,64.07
2022-10-09T19:13:06.018Z,64.14
2022-10-09T19:15:33.158Z,64.42
2022-10-09T19:18:00.041Z,64.59
2022-10-09T19:20:29.411Z,64.93
2022-10-09T19:22:56.616Z,64.92
2022-10-09T19:25:25.029Z,65.23
2022-10-09T19:27:52.649Z,65.09
2022-10-09T19:30:20.195Z,65.08
2022-10-09T19:32:48.611Z,65.24
2022-10-09T19:35:16.086Z,65.29
2022-10-09T19:37:44.779Z,65.52
2022-10-09T19:40:11.995Z,65.61
2022-10-09T19:42:39.414Z,66.06
2022-10-09T19:45:07.012Z,65.95
2022-10-09T19:47:34.235Z,66.22
2022-10-09T19:50:20.103Z,66.65
2022-10-09T19:52:47.544Z,66.53
2022-10-09T19:55:15.505Z,66.55
2022-10-09T19:57:42.799Z,66.71
2022-10-09T20:00:10.626Z,66.16
2022-10-09T20:02:39.189Z,66.68
2022-10-09T20:05:06.454Z,66.64
2022-10-09T20:07:35.723Z,66.72
2022-10-09T20:10:02.967Z,66.94
2022-10-09T20:12:30.397Z,66.71
2022-10-09T20:14:59.010Z,67.36
2022-10-09T20:17:25.756Z,67.51
2022-10-09T20:19:52.632Z,67.62
2022-10-09T20:22:20.122Z,67.48
2022-10-09T20:24:46.876Z,67.67
2022-10-09T20:27:13.607Z,67.62
2022-10-09T20:29:40.364Z,67.38
2022-10-09T20:32:07.128Z,67.78
2022-10-09T20:34:33.796Z,67.99
2022-10-09T20:37:04.527Z,67.95
2022-10-09T20:39:34.880Z,68.15
2022-10-09T20:42:01.649Z,67.74
2022-10-09T20:44:28.337Z,67.78
2022-10-09T20:46:57.443Z,67.95
2022-10-09T20:49:24.226Z,68.01
2022-10-09T20:51:53.225Z,68.27
2022-10-09T20:54:21.616Z,68.45
2022-10-09T20:56:49.742Z,69.19
2022-10-09T20:59:17.387Z,69.32
2022-10-09T21:01:44.620Z,69.62
2022-10-09T21:04:12.450Z,70.04
2022-10-09T21:06:39.261Z,70.43
2022-10-09T21:09:06.001Z,70.64
2022-10-09T21:11:34.803Z,71.53
2022-10-09T21:14:03.191Z,71.30
2022-10-09T21:16:29.981Z,71.79
2022-10-09T21:18:59.639Z,71.79
2022-10-09T21:21:27.655Z,71.98
2022-10-09T21:23:57.111Z,71.97
2022-10-09T21:26:27.997Z,72.16
2022-10-09T21:28:59.285Z,72.19
2022-10-09T21:31:28.819Z,72.33
2022-10-09T21:33:56.028Z,72.21
2022-10-09T21:36:33.452Z,72.18
2022-10-09T21:39:01.348Z,71.81
2022-10-09T21:41:28.132Z,72.19
2022-10-09T21:43:54.941Z,72.01
2022-10-09T21:46:21.874Z,71.92
2022-10-09T21:48:48.482Z,72.27
2022-10-09T21:51:15.156Z,72.33
2022-10-09T21:53:41.949Z,71.90
2022-10-09T21:56:09.930Z,71.79
2022-10-09T21:58:48.102Z,71.94
2022-10-09T22:01:15.765Z,71.79
2022-10-09T22:03:42.446Z,71.91
2022-10-09T22:06:17.771Z,72.04
2022-10-09T22:08:48.802Z,72.20
2022-10-09T22:11:16.992Z,72.47
2022-10-09T22:13:46.394Z,72.56
2022-10-09T22:16:15.112Z,72.25
2022-10-09T22:18:42.018Z,72.13
2022-10-09T22:21:13.456Z,72.19
2022-10-09T22:23:41.981Z,72.51
2022-10-09T22:26:12.718Z,72.24
2022-10-09T22:28:39.874Z,72.42
2022-10-09T22:31:11.189Z,72.67
2022-10-09T22:33:38.213Z,73.12
2022-10-09T22:36:11.656Z,73.25
2022-10-09T22:38:39.408Z,73.69
2022-10-09T22:41:21.213Z,73.72
2022-10-09T22:43:50.811Z,73.57
2022-10-09T22:46:23.385Z,73.30
2022-10-09T22:49:00.167Z,73.57
2022-10-09T22:51:31.206Z,73.42
2022-10-09T22:53:59.550Z,73.23
2022-10-09T22:56:45.772Z,73.32
2022-10-09T22:59:15.702Z,73.05
2022-10-09T23:02:07.030Z,73.46
2022-10-09T23:04:38.465Z,73.48
2022-10-09T23:07:08.479Z,73.62
2022-10-09T23:09:38.601Z,73.95
2022-10-09T23:12:06.486Z,73.91
2022-10-09T23:14:33.219Z,74.78
2022-10-09T23:17:00.822Z,74.92
2022-10-09T23:19:29.012Z,74.22
2022-10-09T23:21:57.659Z,74.38
2022-10-09T23:24:24.892Z,74.55
2022-10-09T23:26:52.509Z,74.82
2022-10-09T23:29:28.303Z,73.98
2022-10-09T23:31:55.185Z,74.23
2022-10-09T23:34:22.013Z,74.77
2022-10-09T23:37:02.576Z,74.63
2022-10-09T23:39:29.161Z,74.98
2022-10-09T23:41:55.987Z,74.39
2022-10-09T23:44:22.732Z,74.39
2022-10-09T23:46:49.515Z,74.53
2022-10-09T23:49:16.255Z,73.73
2022-10-09T23:51:42.814Z,73.69
2022-10-09T23:54:09.909Z,73.50
2022-10-09T23:56:37.281Z,73.44
2022-10-09T23:59:08.236Z,73.23
